createdAt,value
2019-06-26T00:00:36.375Z,7.10
2019-06-26T00:03:05.043Z,6.30
2019-06-26T00:05:34.048Z,6.27
2019-06-26T00:08:03.014Z,6.33
2019-06-26T00:10:31.969Z,5.90
2019-06-26T00:13:00.890Z,6.40
2019-06-26T00:15:29.859Z,6.83
2019-06-26T00:17:58.743Z,5.93
2019-06-26T00:20:27.654Z,6.27
2019-06-26T00:22:56.553Z,6.10
2019-06-26T00:25:25.528Z,6.70
2019-06-26T00:27:54.449Z,6.00
2019-06-26T00:30:23.336Z,6.37
2019-06-26T00:32:52.303Z,6.30
2019-06-26T00:35:21.227Z,6.10
2019-06-26T00:37:50.126Z,6.10
2019-06-26T00:40:19.091Z,6.43
2019-06-26T00:42:48.062Z,7.00
2019-06-26T00:45:17.075Z,6.53
2019-06-26T00:47:46.142Z,7.07
2019-06-26T00:50:16.142Z,6.67
2019-06-26T00:52:45.049Z,7.10
2019-06-26T00:55:13.935Z,6.07
2019-06-26T00:57:43.311Z,6.57
2019-06-26T01:00:12.587Z,5.87
2019-06-26T01:02:41.730Z,6.80
2019-06-26T01:05:11.881Z,6.40
2019-06-26T01:07:41.123Z,6.63
2019-06-26T01:10:11.187Z,6.40
2019-06-26T01:12:40.336Z,6.97
2019-06-26T01:15:09.598Z,6.70
2019-06-26T01:17:38.520Z,6.37
2019-06-26T01:20:08.750Z,7.30
2019-06-26T01:22:37.775Z,7.00
2019-06-26T01:25:06.938Z,6.67
2019-06-26T01:27:35.890Z,7.07
2019-06-26T01:30:06.328Z,7.27
2019-06-26T01:32:35.490Z,7.30
2019-06-26T01:35:05.569Z,6.87
2019-06-26T01:37:34.465Z,6.90
2019-06-26T01:40:04.821Z,7.70
2019-06-26T01:42:33.810Z,7.80
2019-06-26T01:45:02.991Z,6.77
2019-06-26T01:47:32.107Z,7.43
2019-06-26T01:50:01.036Z,7.07
2019-06-26T01:52:31.500Z,7.57
2019-06-26T01:55:00.401Z,7.87
2019-06-26T01:57:29.346Z,7.30
2019-06-26T01:59:58.266Z,7.40
2019-06-26T02:02:27.156Z,7.50
2019-06-26T02:04:56.146Z,7.20
2019-06-26T02:07:25.053Z,7.07
2019-06-26T02:09:54.996Z,7.37
2019-06-26T02:12:23.976Z,7.47
2019-06-26T02:14:52.867Z,7.63
2019-06-26T02:17:21.849Z,7.30
2019-06-26T02:19:50.765Z,7.83
2019-06-26T02:22:19.665Z,7.67
2019-06-26T02:24:48.629Z,7.40
2019-06-26T02:27:17.674Z,7.33
2019-06-26T02:29:46.583Z,7.97
2019-06-26T02:32:15.476Z,7.70
2019-06-26T02:34:44.392Z,8.33
2019-06-26T02:37:13.283Z,7.70
2019-06-26T02:39:42.180Z,8.37
2019-06-26T02:42:11.095Z,7.10
2019-06-26T02:44:52.048Z,6.70
2019-06-26T02:47:19.341Z,7.43
2019-06-26T02:49:41.327Z,7.23
2019-06-26T02:52:10.345Z,7.37
2019-06-26T02:54:39.245Z,7.93
2019-06-26T02:57:09.022Z,7.50
2019-06-26T02:59:37.989Z,8.10
2019-06-26T03:02:06.961Z,7.67
2019-06-26T03:04:35.949Z,8.17
2019-06-26T03:07:04.847Z,8.20
2019-06-26T03:09:33.734Z,8.50
2019-06-26T03:12:02.645Z,7.77
2019-06-26T03:14:31.536Z,9.17
2019-06-26T03:17:00.461Z,8.03
2019-06-26T03:19:29.355Z,8.53
2019-06-26T03:21:58.353Z,8.20
2019-06-26T03:24:27.336Z,8.07
2019-06-26T03:26:56.313Z,8.27
2019-06-26T03:29:25.295Z,8.77
2019-06-26T03:31:54.329Z,8.20
2019-06-26T03:34:23.306Z,9.00
2019-06-26T03:36:52.202Z,8.47
2019-06-26T03:39:21.124Z,8.37
2019-06-26T03:41:50.041Z,8.50
2019-06-26T03:44:20.074Z,9.30
2019-06-26T03:46:48.990Z,9.23
2019-06-26T03:49:17.887Z,9.17
2019-06-26T03:51:46.776Z,8.37
2019-06-26T03:54:15.779Z,9.03
2019-06-26T03:56:44.747Z,9.77
2019-06-26T03:59:13.713Z,8.87
2019-06-26T04:01:42.661Z,8.67
2019-06-26T04:04:11.706Z,9.00
2019-06-26T04:06:40.677Z,8.67
2019-06-26T04:09:09.961Z,9.07
2019-06-26T04:11:38.864Z,9.20
2019-06-26T04:14:07.742Z,9.50
2019-06-26T04:16:36.660Z,9.90
2019-06-26T04:19:05.687Z,9.40
2019-06-26T04:21:34.587Z,8.83
2019-06-26T04:24:03.509Z,8.87
2019-06-26T04:26:32.409Z,9.07
2019-06-26T04:29:01.374Z,9.03
2019-06-26T04:31:30.400Z,8.80
2019-06-26T04:33:59.373Z,8.87
2019-06-26T04:36:29.320Z,9.13
2019-06-26T04:38:58.265Z,9.83
2019-06-26T04:41:27.163Z,9.07
2019-06-26T04:43:56.179Z,10.10
2019-06-26T04:46:25.107Z,9.50
2019-06-26T04:48:53.997Z,8.70
2019-06-26T04:51:22.890Z,10.50
2019-06-26T04:53:54.883Z,10.03
2019-06-26T04:56:22.416Z,9.97
2019-06-26T04:58:51.360Z,9.23
2019-06-26T05:01:21.335Z,9.27
2019-06-26T05:03:50.433Z,9.63
2019-06-26T05:06:19.326Z,9.63
2019-06-26T05:08:48.227Z,10.37
2019-06-26T05:11:18.235Z,10.03
2019-06-26T05:13:47.130Z,9.70
2019-06-26T05:16:20.051Z,10.97
2019-06-26T05:18:46.660Z,10.30
2019-06-26T05:21:15.544Z,9.83
2019-06-26T05:23:44.584Z,10.00
2019-06-26T05:26:13.569Z,10.73
2019-06-26T05:28:42.555Z,9.33
2019-06-26T05:31:11.473Z,9.33
2019-06-26T05:33:41.518Z,9.27
2019-06-26T05:36:10.414Z,9.63
2019-06-26T05:38:39.311Z,10.83
2019-06-26T05:41:08.251Z,11.10
2019-06-26T05:43:37.169Z,11.70
2019-06-26T05:46:06.137Z,10.63
2019-06-26T05:48:35.071Z,10.73
2019-06-26T05:51:04.047Z,10.13
2019-06-26T05:53:33.025Z,11.70
2019-06-26T05:56:02.007Z,11.70
2019-06-26T05:58:30.911Z,10.87
2019-06-26T06:00:59.835Z,11.30
2019-06-26T06:03:28.850Z,12.73
2019-06-26T06:05:58.891Z,13.07
2019-06-26T06:08:27.788Z,11.40
2019-06-26T06:10:58.363Z,11.47
2019-06-26T06:13:27.595Z,11.03
2019-06-26T06:15:56.524Z,12.30
2019-06-26T06:18:25.483Z,13.23
2019-06-26T06:20:54.388Z,12.27
2019-06-26T06:23:23.352Z,12.37
2019-06-26T06:25:52.500Z,12.57
2019-06-26T06:28:21.494Z,12.80
2019-06-26T06:30:50.566Z,12.07
2019-06-26T06:33:19.572Z,11.93
2019-06-26T06:35:48.460Z,12.73
2019-06-26T06:38:17.360Z,12.50
2019-06-26T06:40:46.560Z,12.33
2019-06-26T06:43:15.474Z,12.67
2019-06-26T06:45:44.369Z,12.97
2019-06-26T06:48:13.291Z,13.00
2019-06-26T06:50:42.262Z,13.37
2019-06-26T06:53:11.159Z,13.43
2019-06-26T06:55:40.115Z,12.23
2019-06-26T06:58:09.000Z,12.60
2019-06-26T07:00:37.899Z,12.33
2019-06-26T07:03:06.848Z,12.93
2019-06-26T07:05:35.750Z,11.83
2019-06-26T07:08:04.719Z,12.27
2019-06-26T07:10:33.670Z,12.73
2019-06-26T07:13:02.662Z,12.67
2019-06-26T07:15:31.640Z,13.80
2019-06-26T07:18:00.637Z,12.57
2019-06-26T07:20:29.615Z,12.30
2019-06-26T07:22:58.518Z,12.47
2019-06-26T07:25:27.540Z,12.80
2019-06-26T07:27:56.463Z,13.53
2019-06-26T07:30:25.528Z,13.07
2019-06-26T07:32:54.786Z,12.63
2019-06-26T07:35:23.672Z,12.90
2019-06-26T07:37:52.571Z,11.80
2019-06-26T07:40:21.557Z,11.60
2019-06-26T07:42:50.453Z,12.07
2019-06-26T07:45:19.437Z,12.07
2019-06-26T07:47:48.341Z,10.90
2019-06-26T07:50:17.233Z,11.70
2019-06-26T07:52:46.233Z,11.00
2019-06-26T07:55:15.298Z,12.03
2019-06-26T07:57:44.186Z,11.57
2019-06-26T08:00:13.387Z,10.83
2019-06-26T08:02:42.356Z,11.20
2019-06-26T08:05:11.525Z,11.87
2019-06-26T08:07:40.465Z,11.00
2019-06-26T08:10:09.652Z,10.50
2019-06-26T08:12:38.600Z,10.87
2019-06-26T08:15:07.882Z,11.03
2019-06-26T08:17:36.801Z,9.83
2019-06-26T08:20:05.888Z,10.07
2019-06-26T08:22:34.952Z,10.70
2019-06-26T08:25:05.332Z,10.30
2019-06-26T08:27:34.356Z,10.00
2019-06-26T08:30:04.755Z,9.83
2019-06-26T08:32:33.638Z,9.83
2019-06-26T08:35:02.621Z,10.57
2019-06-26T08:37:31.539Z,9.07
2019-06-26T08:40:00.823Z,11.23
2019-06-26T08:42:29.965Z,10.10
2019-06-26T08:44:58.931Z,9.33
2019-06-26T08:47:27.874Z,9.37
2019-06-26T08:49:56.770Z,9.40
2019-06-26T08:52:25.752Z,9.23
2019-06-26T08:54:54.655Z,9.80
2019-06-26T08:57:23.689Z,9.60
2019-06-26T08:59:52.646Z,8.83
2019-06-26T09:02:21.551Z,8.53
2019-06-26T09:04:50.506Z,9.07
2019-06-26T09:07:19.456Z,8.90
2019-06-26T09:09:48.325Z,9.57
2019-06-26T09:12:17.229Z,8.73
2019-06-26T09:14:46.153Z,8.87
2019-06-26T09:17:15.099Z,9.40
2019-06-26T09:19:44.074Z,8.93
2019-06-26T09:22:12.987Z,8.00
2019-06-26T09:24:41.938Z,8.63
2019-06-26T09:27:14.606Z,8.43
2019-06-26T09:29:41.519Z,8.33
2019-06-26T09:32:10.439Z,8.47
2019-06-26T09:34:39.322Z,8.47
2019-06-26T09:37:08.223Z,7.70
2019-06-26T09:39:37.146Z,7.80
2019-06-26T09:42:06.042Z,8.87
2019-06-26T09:44:34.944Z,8.07
2019-06-26T09:47:03.905Z,7.20
2019-06-26T09:49:32.853Z,7.37
2019-06-26T09:52:01.724Z,7.20
2019-06-26T09:54:30.616Z,7.90
2019-06-26T09:56:59.546Z,7.33
2019-06-26T09:59:28.437Z,7.00
2019-06-26T10:01:57.327Z,7.60
2019-06-26T10:04:26.433Z,6.83
2019-06-26T10:06:55.325Z,7.57
2019-06-26T10:09:24.219Z,6.97
2019-06-26T10:11:53.257Z,6.90
2019-06-26T10:14:22.146Z,6.90
2019-06-26T10:16:51.045Z,6.60
2019-06-26T10:19:19.966Z,7.13
2019-06-26T10:21:48.945Z,7.37
2019-06-26T10:24:17.920Z,6.77
2019-06-26T10:26:46.808Z,7.03
2019-06-26T10:29:15.697Z,7.13
2019-06-26T10:31:44.634Z,7.07
2019-06-26T10:34:13.523Z,6.20
2019-06-26T10:36:42.409Z,6.83
2019-06-26T10:39:11.312Z,6.10
2019-06-26T10:41:40.224Z,6.00
2019-06-26T10:44:09.217Z,5.60
2019-06-26T10:46:38.095Z,5.63
2019-06-26T10:49:06.991Z,5.90
2019-06-26T10:51:35.909Z,5.70
2019-06-26T10:54:04.869Z,6.23
2019-06-26T10:56:33.762Z,6.70
2019-06-26T10:59:02.739Z,6.70
2019-06-26T11:01:31.622Z,6.90
2019-06-26T11:04:00.586Z,7.03
2019-06-26T11:06:29.499Z,6.40
2019-06-26T11:08:58.402Z,6.90
2019-06-26T11:11:27.297Z,7.40
2019-06-26T11:13:56.190Z,6.83
2019-06-26T11:16:25.099Z,7.13
2019-06-26T11:18:54.093Z,7.40
2019-06-26T11:21:23.037Z,6.93
2019-06-26T11:23:51.939Z,7.37
2019-06-26T11:26:20.948Z,6.93
2019-06-26T11:28:49.843Z,6.90
2019-06-26T11:31:18.797Z,7.07
2019-06-26T11:33:47.718Z,8.13
2019-06-26T11:36:16.634Z,7.47
2019-06-26T11:38:45.527Z,6.77
2019-06-26T11:41:14.495Z,6.90
2019-06-26T11:43:43.392Z,7.00
2019-06-26T11:46:12.315Z,7.57
2019-06-26T11:48:41.232Z,7.97
2019-06-26T11:51:10.130Z,7.77
2019-06-26T11:53:39.211Z,7.27
2019-06-26T11:56:08.394Z,7.07
2019-06-26T11:58:37.279Z,7.63
2019-06-26T12:01:06.217Z,7.57
2019-06-26T12:03:35.110Z,7.23
2019-06-26T12:06:17.779Z,7.60
2019-06-26T12:08:34.959Z,7.10
2019-06-26T12:11:03.921Z,7.73
2019-06-26T12:13:33.586Z,6.87
2019-06-26T12:16:02.922Z,7.20
2019-06-26T12:18:31.927Z,6.80
2019-06-26T12:21:00.821Z,7.10
2019-06-26T12:23:29.750Z,7.77
2019-06-26T12:25:58.719Z,7.30
2019-06-26T12:28:27.617Z,6.53
2019-06-26T12:30:56.628Z,7.63
2019-06-26T12:33:25.522Z,7.20
2019-06-26T12:35:54.407Z,7.63
2019-06-26T12:38:23.422Z,7.83
2019-06-26T12:40:52.343Z,7.63
2019-06-26T12:43:21.279Z,7.23
2019-06-26T12:45:51.177Z,6.93
2019-06-26T12:48:20.077Z,7.90
2019-06-26T12:50:48.975Z,7.20
2019-06-26T12:53:17.963Z,7.33
2019-06-26T12:55:46.861Z,6.83
2019-06-26T12:58:19.684Z,6.57
2019-06-26T13:00:46.372Z,7.33
2019-06-26T13:03:15.337Z,7.00
2019-06-26T13:05:44.300Z,6.80
2019-06-26T13:08:13.240Z,7.23
2019-06-26T13:10:49.818Z,7.10
2019-06-26T13:13:13.885Z,7.20
2019-06-26T13:15:42.774Z,6.97
2019-06-26T13:18:12.807Z,6.33
2019-06-26T13:20:52.219Z,6.33
2019-06-26T13:23:14.763Z,7.17
2019-06-26T13:25:42.954Z,7.40
2019-06-26T13:28:11.911Z,6.53
2019-06-26T13:30:40.891Z,6.70
2019-06-26T13:33:09.811Z,7.00
2019-06-26T13:35:38.694Z,7.10
2019-06-26T13:38:08.725Z,7.07
2019-06-26T13:40:40.813Z,7.20
2019-06-26T13:43:08.397Z,6.83
2019-06-26T13:45:37.350Z,7.23
2019-06-26T13:48:06.328Z,7.10
2019-06-26T13:50:35.217Z,8.67
2019-06-26T13:53:05.170Z,7.83
2019-06-26T13:55:34.112Z,7.17
2019-06-26T13:58:03.011Z,7.33
2019-06-26T14:00:31.971Z,7.47
2019-06-26T14:03:00.926Z,6.90
2019-06-26T14:05:29.860Z,6.93
2019-06-26T14:07:58.753Z,6.60
2019-06-26T14:10:27.691Z,6.73
2019-06-26T14:12:56.591Z,6.63
2019-06-26T14:15:25.548Z,6.33
2019-06-26T14:17:54.481Z,6.00
2019-06-26T14:20:23.477Z,7.43
2019-06-26T14:22:52.421Z,6.65
2019-06-26T14:25:21.327Z,6.70
2019-06-26T14:27:50.230Z,6.65
2019-06-26T14:30:20.197Z,5.85
2019-06-26T14:32:49.214Z,6.90
2019-06-26T14:35:18.169Z,6.35
2019-06-26T14:37:47.048Z,6.30
2019-06-26T14:40:17.172Z,5.90
2019-06-26T14:42:46.194Z,6.72
2019-06-26T14:45:15.963Z,7.03
2019-06-26T14:47:45.863Z,5.92
2019-06-26T14:50:15.893Z,6.40
2019-06-26T14:52:45.942Z,6.28
2019-06-26T14:55:15.183Z,5.53
2019-06-26T14:57:44.189Z,6.28
2019-06-26T15:00:13.883Z,5.65
2019-06-26T15:02:42.819Z,5.58
2019-06-26T15:05:12.069Z,5.90
2019-06-26T15:07:40.956Z,6.15
2019-06-26T15:10:09.946Z,5.97
2019-06-26T15:12:38.907Z,5.37
2019-06-26T15:15:08.013Z,5.05
2019-06-26T15:17:37.089Z,5.22
2019-06-26T15:20:06.948Z,5.20
2019-06-26T15:22:35.843Z,5.97
2019-06-26T15:25:05.540Z,5.70
2019-06-26T15:27:34.429Z,4.75
2019-06-26T15:30:05.210Z,5.60
2019-06-26T15:32:34.128Z,5.40
2019-06-26T15:35:04.762Z,5.37
2019-06-26T15:37:33.682Z,5.80
2019-06-26T15:40:02.750Z,5.10
2019-06-26T15:42:31.706Z,5.35
2019-06-26T15:45:00.725Z,5.37
2019-06-26T15:47:29.606Z,6.03
2019-06-26T15:49:58.505Z,5.40
2019-06-26T15:52:30.677Z,5.17
2019-06-26T15:54:58.082Z,5.28
2019-06-26T15:57:27.089Z,5.75
2019-06-26T15:59:56.018Z,5.50
2019-06-26T16:02:24.912Z,5.70
2019-06-26T16:04:53.824Z,5.40
2019-06-26T16:07:22.750Z,4.72
2019-06-26T16:09:51.649Z,5.35
2019-06-26T16:12:20.541Z,5.28
2019-06-26T16:14:49.485Z,5.53
2019-06-26T16:17:20.039Z,6.10
2019-06-26T16:19:48.975Z,5.05
2019-06-26T16:22:31.196Z,5.25
2019-06-26T16:24:48.621Z,5.37
2019-06-26T16:27:17.533Z,5.25
2019-06-26T16:29:48.571Z,5.65
2019-06-26T16:32:17.035Z,5.60
2019-06-26T16:34:45.928Z,4.67
2019-06-26T16:37:14.859Z,5.75
2019-06-26T16:39:43.824Z,5.05
2019-06-26T16:42:12.707Z,4.90
2019-06-26T16:44:42.689Z,5.97
2019-06-26T16:47:11.584Z,5.25
2019-06-26T16:49:40.543Z,5.17
2019-06-26T16:52:10.447Z,5.97
2019-06-26T16:54:39.333Z,5.17
2019-06-26T16:57:08.225Z,5.20
2019-06-26T16:59:37.457Z,5.47
2019-06-26T17:02:07.240Z,5.23
2019-06-26T17:04:36.228Z,4.93
2019-06-26T17:07:05.162Z,5.50
2019-06-26T17:09:34.075Z,5.13
2019-06-26T17:12:02.973Z,5.30
2019-06-26T17:14:31.924Z,5.43
2019-06-26T17:17:00.868Z,5.37
2019-06-26T17:19:29.855Z,5.83
2019-06-26T17:21:58.774Z,4.93
2019-06-26T17:24:27.658Z,5.03
2019-06-26T17:26:59.377Z,5.40
2019-06-26T17:29:27.172Z,5.43
2019-06-26T17:31:56.078Z,6.17
2019-06-26T17:34:27.299Z,6.20
2019-06-26T17:36:56.421Z,5.10
2019-06-26T17:39:25.476Z,4.93
2019-06-26T17:41:54.361Z,5.43
2019-06-26T17:44:23.308Z,5.67
2019-06-26T17:46:52.422Z,5.90
2019-06-26T17:49:22.431Z,5.33
2019-06-26T17:51:51.354Z,5.20
2019-06-26T17:54:21.318Z,5.30
2019-06-26T17:56:50.203Z,5.97
2019-06-26T17:59:19.127Z,5.33
2019-06-26T18:01:48.012Z,6.30
2019-06-26T18:04:17.976Z,5.60
2019-06-26T18:06:46.895Z,5.63
2019-06-26T18:09:15.783Z,5.67
2019-06-26T18:11:44.678Z,5.53
2019-06-26T18:14:13.595Z,4.93
2019-06-26T18:16:42.487Z,5.43
2019-06-26T18:19:11.396Z,5.30
2019-06-26T18:21:40.333Z,6.03
2019-06-26T18:24:09.231Z,5.60
2019-06-26T18:26:38.126Z,5.80
2019-06-26T18:29:07.071Z,6.43
2019-06-26T18:31:35.961Z,5.63
2019-06-26T18:34:04.914Z,5.63
2019-06-26T18:36:33.850Z,6.20
2019-06-26T18:39:02.737Z,6.03
2019-06-26T18:41:32.170Z,5.97
2019-06-26T18:44:01.315Z,5.43
2019-06-26T18:46:30.210Z,5.50
2019-06-26T18:49:01.653Z,5.87
2019-06-26T18:51:30.536Z,6.20
2019-06-26T18:54:01.122Z,5.57
2019-06-26T18:56:30.698Z,6.20
2019-06-26T18:59:00.022Z,6.00
2019-06-26T19:01:29.376Z,5.87
2019-06-26T19:03:58.707Z,5.77
2019-06-26T19:06:28.148Z,5.97
2019-06-26T19:08:57.456Z,6.40
2019-06-26T19:11:26.773Z,6.27
2019-06-26T19:13:56.130Z,6.57
2019-06-26T19:16:26.490Z,6.07
2019-06-26T19:18:55.804Z,6.27
2019-06-26T19:21:25.309Z,4.97
2019-06-26T19:24:09.062Z,5.77
2019-06-26T19:26:25.698Z,5.57
2019-06-26T19:28:55.277Z,6.80
2019-06-26T19:31:24.737Z,6.90
2019-06-26T19:33:54.054Z,6.37
2019-06-26T19:36:26.094Z,6.17
2019-06-26T19:38:54.454Z,6.47
2019-06-26T19:41:23.762Z,6.27
2019-06-26T19:43:53.108Z,6.20
2019-06-26T19:46:22.523Z,6.17
2019-06-26T19:48:51.819Z,6.33
2019-06-26T19:51:21.132Z,6.40
2019-06-26T19:53:50.477Z,6.67
2019-06-26T19:56:20.278Z,5.97
2019-06-26T19:58:49.698Z,6.00
2019-06-26T20:01:19.122Z,6.03
2019-06-26T20:03:48.530Z,6.57
2019-06-26T20:06:17.991Z,6.80
2019-06-26T20:08:54.414Z,6.40
2019-06-26T20:11:18.465Z,7.27
2019-06-26T20:13:47.936Z,6.60
2019-06-26T20:16:17.261Z,6.33
2019-06-26T20:18:46.604Z,5.93
2019-06-26T20:21:16.033Z,6.00
2019-06-26T20:23:45.354Z,6.53
2019-06-26T20:26:14.677Z,6.23
2019-06-26T20:28:44.000Z,6.10
2019-06-26T20:31:13.326Z,6.77
2019-06-26T20:33:42.647Z,7.23
2019-06-26T20:36:11.999Z,6.70
2019-06-26T20:38:41.322Z,5.93
2019-06-26T20:41:10.706Z,6.13
2019-06-26T20:43:40.151Z,7.47
2019-06-26T20:46:09.472Z,6.00
2019-06-26T20:48:38.791Z,6.27
2019-06-26T20:51:08.152Z,6.37
2019-06-26T20:53:37.444Z,7.20
2019-06-26T20:56:06.840Z,5.97
2019-06-26T20:58:36.199Z,6.80
2019-06-26T21:01:05.508Z,7.40
2019-06-26T21:03:35.912Z,6.03
2019-06-26T21:06:05.391Z,7.20
2019-06-26T21:08:34.708Z,7.27
2019-06-26T21:11:04.081Z,6.83
2019-06-26T21:13:33.494Z,7.30
2019-06-26T21:16:02.829Z,6.97
2019-06-26T21:18:32.119Z,6.90
2019-06-26T21:21:01.466Z,7.50
2019-06-26T21:23:30.872Z,6.60
2019-06-26T21:26:00.214Z,6.83
2019-06-26T21:28:29.532Z,7.03
2019-06-26T21:30:58.908Z,6.97
2019-06-26T21:33:28.269Z,7.30
2019-06-26T21:35:57.584Z,6.63
2019-06-26T21:38:26.977Z,7.13
2019-06-26T21:40:56.326Z,6.73
2019-06-26T21:43:25.654Z,7.00
2019-06-26T21:45:54.969Z,7.27
2019-06-26T21:48:24.418Z,6.50
2019-06-26T21:50:53.841Z,7.57
2019-06-26T21:53:23.151Z,7.33
2019-06-26T21:56:11.768Z,7.23
2019-06-26T21:58:59.240Z,7.00
2019-06-26T22:01:48.081Z,6.97
2019-06-26T22:04:35.270Z,7.80
2019-06-26T22:07:24.873Z,7.87
2019-06-26T22:09:58.678Z,8.00
2019-06-26T22:12:29.590Z,7.87
2019-06-26T22:14:59.081Z,7.10
2019-06-26T22:17:28.573Z,7.70
2019-06-26T22:19:58.161Z,7.33
2019-06-26T22:22:27.558Z,7.87
2019-06-26T22:24:57.953Z,7.90
2019-06-26T22:27:27.473Z,7.03
2019-06-26T22:29:56.786Z,8.07
2019-06-26T22:32:26.107Z,7.20
2019-06-26T22:34:55.515Z,6.93
2019-06-26T22:37:24.954Z,7.73
2019-06-26T22:39:54.271Z,7.73
2019-06-26T22:42:24.807Z,7.77
2019-06-26T22:44:54.198Z,7.80
2019-06-26T22:47:23.588Z,7.00
2019-06-26T22:49:53.091Z,7.53
2019-06-26T22:52:22.482Z,7.70
2019-06-26T22:54:51.804Z,7.47
2019-06-26T22:57:22.772Z,8.23
2019-06-26T22:59:52.157Z,7.67
2019-06-26T23:02:21.481Z,8.90
2019-06-26T23:04:50.851Z,7.87
2019-06-26T23:07:20.165Z,7.23
2019-06-26T23:09:49.486Z,7.33
2019-06-26T23:12:18.908Z,7.57
2019-06-26T23:14:48.239Z,7.47
2019-06-26T23:17:17.560Z,7.90
2019-06-26T23:19:46.897Z,8.03
2019-06-26T23:22:16.222Z,7.90
2019-06-26T23:24:45.549Z,8.50
2019-06-26T23:27:14.909Z,8.37
2019-06-26T23:29:44.230Z,8.33
2019-06-26T23:32:13.679Z,8.30
2019-06-26T23:34:43.047Z,8.70
2019-06-26T23:37:12.369Z,7.57
2019-06-26T23:39:41.693Z,7.47
2019-06-26T23:42:11.032Z,8.40
2019-06-26T23:44:40.354Z,7.70
2019-06-26T23:47:09.692Z,7.90
2019-06-26T23:49:39.086Z,7.93
2019-06-26T23:52:08.506Z,7.43
2019-06-26T23:54:37.895Z,8.73
2019-06-26T23:57:07.324Z,9.00
2019-06-26T23:59:36.772Z,8.07
